Time;durP1;ratioP1;P1;durP2;ratioP2;P2;SDS_P1;SDS_P2;PMS_P1;PMS_P2;Temp;Humidity;BMP_temperature;BMP_pressure;BME280_temperature;BME280_humidity;BME280_pressure;Samples;Min_cycle;Max_cycle;Signal;HPM_P1;HPM_P2
2021/06/04 00:01:24;;;;;;;6.00;5.60;;;18.40;99.90;;;;;;5012361;28;20647;-66
2021/06/04 00:03:51;;;;;;;6.40;5.90;;;18.30;99.90;;;;;;5012266;28;20203;-66
2021/06/04 00:06:18;;;;;;;6.57;5.97;;;18.40;99.90;;;;;;5012273;28;20413;-66
2021/06/04 00:08:44;;;;;;;6.50;6.10;;;18.30;99.90;;;;;;5011889;28;20422;-65
2021/06/04 00:11:19;;;;;;;6.90;6.40;;;18.30;99.90;;;;;;5012246;28;20421;-66
2021/06/04 00:13:49;;;;;;;6.97;6.37;;;18.20;99.90;;;;;;5011978;28;20468;-66
2021/06/04 00:16:30;;;;;;;7.60;6.27;;;18.10;99.90;;;;;;5012023;28;20912;-66
2021/06/04 00:18:57;;;;;;;5.83;5.43;;;18.10;99.90;;;;;;5011713;28;20808;-66
2021/06/04 00:21:32;;;;;;;5.80;5.40;;;18.10;99.90;;;;;;5012059;28;20417;-66
2021/06/04 00:24:00;;;;;;;6.23;5.83;;;18.00;99.90;;;;;;5011854;28;20963;-66
2021/06/04 00:26:26;;;;;;;6.93;6.33;;;18.00;99.90;;;;;;5012028;28;20433;-67
2021/06/04 00:28:52;;;;;;;5.87;5.47;;;18.00;99.90;;;;;;5011381;28;20508;-66
2021/06/04 00:31:21;;;;;;;6.47;5.87;;;17.90;99.90;;;;;;5011958;28;20621;-66
2021/06/04 00:33:47;;;;;;;7.00;5.83;;;17.90;99.90;;;;;;5011665;28;20246;-66
2021/06/04 00:36:13;;;;;;;7.67;7.17;;;17.90;99.90;;;;;;5011739;28;20426;-66
2021/06/04 00:38:39;;;;;;;5.90;5.30;;;17.80;99.90;;;;;;5010992;28;20489;-66
2021/06/04 00:41:13;;;;;;;5.90;5.50;;;17.80;99.90;;;;;;5011640;28;20183;-66
2021/06/04 00:43:39;;;;;;;5.70;5.20;;;17.70;99.90;;;;;;5011461;28;20452;-65
2021/06/04 00:46:07;;;;;;;6.40;5.90;;;17.80;99.90;;;;;;5011574;28;20492;-67
2021/06/04 00:48:34;;;;;;;5.90;5.40;;;17.80;99.90;;;;;;5010974;28;20796;-66
2021/06/04 00:51:08;;;;;;;6.37;5.87;;;17.80;99.90;;;;;;5011519;28;20475;-66
2021/06/04 00:53:35;;;;;;;6.43;5.87;;;17.70;99.90;;;;;;5011387;28;20501;-66
2021/06/04 00:56:01;;;;;;;5.73;5.13;;;17.80;99.90;;;;;;5011476;28;20421;-65
2021/06/04 00:58:33;;;;;;;5.43;5.00;;;17.70;99.90;;;;;;5010672;28;20418;-65
2021/06/04 01:01:00;;;;;;;5.40;5.00;;;17.70;99.90;;;;;;5011502;28;20189;-66
2021/06/04 01:03:31;;;;;;;6.37;5.87;;;17.70;99.90;;;;;;5011425;28;20537;-66
2021/06/04 01:06:09;;;;;;;5.67;5.27;;;17.70;99.90;;;;;;5011188;28;20421;-66
2021/06/04 01:08:42;;;;;;;5.33;4.83;;;17.70;99.90;;;;;;5010633;28;20487;-65
2021/06/04 01:11:10;;;;;;;7.10;6.40;;;17.70;99.90;;;;;;5011378;28;20978;-66
2021/06/04 01:13:48;;;;;;;4.80;4.50;;;17.70;99.90;;;;;;5011182;28;20875;-66
2021/06/04 01:16:37;;;;;;;6.37;5.77;;;17.70;99.90;;;;;;5011091;28;20413;-65
2021/06/04 01:19:02;;;;;;;5.60;5.20;;;17.50;99.90;;;;;;5010796;28;21112;-65
2021/06/04 01:21:49;;;;;;;5.90;5.50;;;17.40;99.90;;;;;;5011212;28;20418;-66
2021/06/04 01:24:29;;;;;;;5.90;5.40;;;17.40;99.90;;;;;;5011145;28;20850;-65
2021/06/04 01:27:00;;;;;;;5.20;4.70;;;17.40;99.90;;;;;;5011169;28;20978;-66
2021/06/04 01:29:33;;;;;;;5.13;4.83;;;17.40;99.90;;;;;;5010355;28;20903;-66
2021/06/04 01:32:04;;;;;;;5.30;4.90;;;17.40;99.90;;;;;;5010826;28;20425;-66
2021/06/04 01:34:35;;;;;;;6.17;5.67;;;17.40;99.90;;;;;;5010991;28;21062;-65
2021/06/04 01:37:09;;;;;;;5.47;5.03;;;17.40;99.90;;;;;;5010002;28;20468;-66
2021/06/04 01:39:44;;;;;;;5.63;5.20;;;17.40;99.90;;;;;;5010694;28;20420;-68
2021/06/04 01:42:15;;;;;;;6.13;5.63;;;17.40;99.90;;;;;;5010612;28;20424;-66
2021/06/04 01:44:46;;;;;;;5.63;5.23;;;17.40;99.90;;;;;;5010944;28;20460;-67
2021/06/04 01:47:16;;;;;;;5.37;4.97;;;17.40;99.90;;;;;;5010556;28;20414;-66
2021/06/04 01:49:45;;;;;;;5.77;5.30;;;17.40;99.90;;;;;;5010830;28;20425;-65
2021/06/04 01:52:19;;;;;;;5.97;5.43;;;17.40;99.90;;;;;;5010750;28;20417;-66
2021/06/04 01:54:59;;;;;;;6.23;5.63;;;17.30;99.90;;;;;;5010939;28;20536;-66
2021/06/04 01:57:34;;;;;;;5.70;5.30;;;17.20;99.90;;;;;;5010187;28;20432;-66
2021/06/04 02:00:01;;;;;;;6.33;5.80;;;17.10;99.90;;;;;;5010607;28;20911;-66
2021/06/04 02:02:30;;;;;;;6.40;5.90;;;17.10;99.90;;;;;;5010645;28;20437;-66
2021/06/04 02:04:56;;;;;;;7.17;6.67;;;17.10;99.90;;;;;;5010693;28;20425;-67
2021/06/04 02:07:25;;;;;;;6.03;5.53;;;17.10;99.90;;;;;;5010042;28;20418;-67
2021/06/04 02:09:52;;;;;;;5.50;5.10;;;17.10;99.90;;;;;;5010837;28;20414;-66
2021/06/04 02:12:19;;;;;;;5.97;5.57;;;17.10;99.90;;;;;;5010468;28;20947;-67
2021/06/04 02:14:58;;;;;;;5.73;5.20;;;17.10;99.90;;;;;;5010934;28;20510;-66
2021/06/04 02:17:29;;;;;;;6.33;5.83;;;17.10;99.90;;;;;;5012710;28;20816;-65
2021/06/04 02:20:15;;;;;;;6.97;6.53;;;17.10;99.90;;;;;;5013949;28;20424;-66
2021/06/04 02:23:03;;;;;;;6.30;5.70;;;17.10;99.90;;;;;;5014299;28;20519;-66
2021/06/04 02:25:46;;;;;;;6.37;5.83;;;17.10;99.90;;;;;;5014234;28;20414;-66
2021/06/04 02:28:21;;;;;;;5.73;5.23;;;17.10;99.90;;;;;;5013496;28;20475;-67
2021/06/04 02:30:53;;;;;;;7.17;6.67;;;17.10;99.90;;;;;;5014198;28;20890;-66
2021/06/04 02:33:45;;;;;;;6.10;5.50;;;17.10;99.90;;;;;;5013868;28;21085;-65
2021/06/04 02:36:21;;;;;;;6.73;6.23;;;17.10;99.90;;;;;;5009908;28;20992;-66
2021/06/04 02:38:46;;;;;;;7.60;7.07;;;17.10;99.90;;;;;;5013380;28;20440;-66
2021/06/04 02:41:35;;;;;;;7.33;6.73;;;17.10;99.90;;;;;;5013968;28;20418;-66
2021/06/04 02:44:18;;;;;;;5.73;5.33;;;17.10;99.90;;;;;;5013648;28;20213;-65
2021/06/04 02:46:51;;;;;;;7.60;7.00;;;17.10;99.90;;;;;;5013881;28;20414;-66
2021/06/04 02:49:20;;;;;;;7.73;6.40;;;17.10;99.90;;;;;;5013216;28;20923;-66
2021/06/04 02:52:24;;;;;;;7.80;7.10;;;17.10;99.90;;;;;;5013780;28;20425;-66
2021/06/04 02:54:50;;;;;;;7.50;6.90;;;17.10;99.90;;;;;;5013823;28;20445;-66
2021/06/04 02:57:19;;;;;;;7.23;6.70;;;17.10;99.90;;;;;;5013211;28;20903;-67
2021/06/04 02:59:46;;;;;;;8.37;7.77;;;17.10;99.90;;;;;;5012246;28;20421;-66
2021/06/04 03:02:15;;;;;;;8.13;7.60;;;17.10;99.90;;;;;;5013419;28;20417;-66
2021/06/04 03:04:45;;;;;;;8.43;7.77;;;17.00;99.90;;;;;;5013931;28;20973;-65
2021/06/04 03:07:19;;;;;;;10.27;7.37;;;17.10;99.90;;;;;;5013527;28;20926;-66
2021/06/04 03:09:45;;;;;;;8.77;8.07;;;17.00;99.90;;;;;;5013757;28;20797;-66
2021/06/04 03:12:14;;;;;;;8.63;7.97;;;17.00;99.90;;;;;;5013386;28;20461;-66
2021/06/04 03:14:40;;;;;;;8.03;7.43;;;17.00;99.90;;;;;;5013319;28;20466;-66
2021/06/04 03:17:08;;;;;;;10.43;9.43;;;17.00;99.90;;;;;;5013213;28;20414;-66
2021/06/04 03:19:34;;;;;;;9.60;8.80;;;17.00;99.90;;;;;;5012477;28;20183;-66
2021/06/04 03:22:14;;;;;;;10.30;9.43;;;17.00;99.90;;;;;;5013128;28;20934;-66
2021/06/04 03:24:42;;;;;;;9.17;8.47;;;17.00;99.90;;;;;;5013239;28;20257;-66
2021/06/04 03:27:10;;;;;;;7.73;7.23;;;17.00;99.90;;;;;;5013230;28;20471;-65
2021/06/04 03:29:36;;;;;;;8.60;7.90;;;17.00;99.90;;;;;;5012898;28;20798;-66
2021/06/04 03:32:08;;;;;;;8.77;8.00;;;17.00;99.90;;;;;;5012755;28;20456;-66
2021/06/04 03:34:35;;;;;;;9.07;8.27;;;17.10;99.90;;;;;;5012830;28;20457;-65
2021/06/04 03:37:01;;;;;;;7.80;7.20;;;17.10;99.90;;;;;;5012920;28;20919;-67
2021/06/04 03:39:31;;;;;;;8.67;7.77;;;17.00;99.90;;;;;;5012504;28;20927;-68
2021/06/04 03:41:58;;;;;;;9.70;8.87;;;17.00;99.90;;;;;;5012643;28;20453;-65
2021/06/04 03:44:26;;;;;;;11.07;9.37;;;17.00;99.90;;;;;;5012634;28;20413;-66
2021/06/04 03:46:53;;;;;;;8.13;7.43;;;17.00;99.90;;;;;;5012985;28;20915;-65
2021/06/04 03:49:21;;;;;;;8.10;7.33;;;17.10;99.90;;;;;;5012246;28;20410;-65
2021/06/04 03:51:48;;;;;;;8.90;8.30;;;17.20;99.90;;;;;;5013028;28;20449;-66
2021/06/04 03:54:20;;;;;;;9.67;8.87;;;17.30;99.90;;;;;;5012385;28;20465;-66
2021/06/04 03:56:47;;;;;;;8.67;8.07;;;17.30;99.90;;;;;;5012461;28;20785;-66
2021/06/04 03:59:12;;;;;;;8.80;8.10;;;17.30;99.90;;;;;;5011677;28;20444;-66
2021/06/04 04:01:46;;;;;;;8.67;7.97;;;17.40;99.90;;;;;;5012492;28;20414;-66
2021/06/04 04:04:14;;;;;;;9.53;8.73;;;17.50;99.90;;;;;;5012187;28;20256;-66
2021/06/04 04:06:39;;;;;;;8.50;7.87;;;17.60;99.90;;;;;;5012278;28;20421;-66
2021/06/04 04:09:07;;;;;;;8.33;7.73;;;17.70;99.90;;;;;;5011541;28;20425;-66
2021/06/04 04:11:34;;;;;;;9.47;8.77;;;17.90;99.90;;;;;;5012499;28;20171;-66
2021/06/04 04:13:59;;;;;;;10.17;9.47;;;18.00;99.90;;;;;;5012043;28;20477;-66
2021/06/04 04:16:25;;;;;;;9.73;9.00;;;18.10;99.90;;;;;;5012111;28;20418;-65
2021/06/04 04:18:50;;;;;;;9.03;8.40;;;18.20;99.90;;;;;;5011430;28;20171;-66
2021/06/04 04:21:16;;;;;;;10.77;9.97;;;18.30;99.90;;;;;;5012203;28;20186;-67
2021/06/04 04:23:46;;;;;;;10.03;9.33;;;18.40;99.90;;;;;;5011895;28;20618;-67
2021/06/04 04:26:15;;;;;;;8.83;8.23;;;18.30;99.90;;;;;;5012191;28;20175;-65
2021/06/04 04:28:43;;;;;;;10.00;9.10;;;18.40;99.90;;;;;;5011139;28;20504;-65
2021/06/04 04:31:12;;;;;;;8.80;8.00;;;18.50;99.90;;;;;;5011940;28;20985;-65
2021/06/04 04:33:38;;;;;;;11.03;8.50;;;18.60;99.90;;;;;;5011693;28;20469;-66
2021/06/04 04:36:06;;;;;;;8.67;7.97;;;18.70;99.90;;;;;;5011819;28;20422;-66
2021/06/04 04:38:33;;;;;;;9.23;8.43;;;18.60;99.90;;;;;;5010833;28;20417;-66
2021/06/04 04:41:02;;;;;;;8.13;7.53;;;18.60;99.90;;;;;;5011740;28;20418;-66
2021/06/04 04:43:30;;;;;;;9.77;9.07;;;18.60;99.90;;;;;;5011501;28;20472;-65
2021/06/04 04:45:56;;;;;;;8.97;8.33;;;18.60;99.90;;;;;;5011511;28;20791;-67
2021/06/04 04:48:22;;;;;;;9.20;8.30;;;18.60;99.90;;;;;;5010858;28;20414;-67
2021/06/04 04:50:48;;;;;;;8.97;8.20;;;18.60;99.90;;;;;;5011488;28;20232;-66
2021/06/04 04:53:14;;;;;;;9.10;8.30;;;18.70;99.90;;;;;;5011426;28;20461;-66
2021/06/04 04:55:41;;;;;;;9.63;8.93;;;18.70;99.90;;;;;;5011473;28;20261;-65
2021/06/04 04:58:08;;;;;;;13.40;12.20;;;18.80;99.90;;;;;;5010815;28;20424;-65
2021/06/04 05:00:35;;;;;;;9.47;8.57;;;19.00;99.90;;;;;;5011509;28;20421;-66
2021/06/04 05:03:01;;;;;;;8.70;7.90;;;19.00;99.90;;;;;;5011563;28;20584;-66
2021/06/04 05:05:29;;;;;;;8.67;7.97;;;19.10;99.90;;;;;;5011585;28;20496;-66
2021/06/04 05:07:55;;;;;;;8.40;7.70;;;19.00;99.90;;;;;;5010643;28;20420;-65
2021/06/04 05:10:21;;;;;;;11.03;7.70;;;19.00;99.90;;;;;;5011253;28;20437;-66
2021/06/04 05:12:46;;;;;;;8.90;8.07;;;19.00;99.90;;;;;;5011143;28;20442;-65
2021/06/04 05:15:17;;;;;;;9.47;8.57;;;19.00;99.90;;;;;;5011117;28;20206;-66
2021/06/04 05:17:44;;;;;;;10.23;9.13;;;19.00;99.90;;;;;;5010550;28;20451;-65
2021/06/04 05:20:12;;;;;;;8.70;8.00;;;19.00;99.90;;;;;;5010977;28;20511;-65
2021/06/04 05:22:38;;;;;;;9.10;8.40;;;19.20;99.90;;;;;;5010986;28;20963;-65
2021/06/04 05:25:06;;;;;;;9.57;8.67;;;19.30;99.90;;;;;;5011233;28;20425;-66
2021/06/04 05:27:32;;;;;;;9.80;8.90;;;19.40;99.90;;;;;;5010423;28;20414;-65
2021/06/04 05:29:58;;;;;;;9.33;8.60;;;19.50;99.90;;;;;;5011053;28;20422;-66
2021/06/04 05:32:23;;;;;;;8.27;7.67;;;19.60;99.90;;;;;;5011470;28;20213;-66
2021/06/04 05:34:49;;;;;;;9.60;8.33;;;19.70;99.90;;;;;;5011118;28;20237;-66
2021/06/04 05:37:15;;;;;;;8.40;7.80;;;19.90;99.90;;;;;;5010585;28;20178;-67
2021/06/04 05:39:41;;;;;;;7.63;6.93;;;20.30;99.90;;;;;;5010991;28;20428;-66
2021/06/04 05:42:08;;;;;;;7.73;7.13;;;20.50;99.90;;;;;;5010825;28;20170;-67
2021/06/04 05:44:37;;;;;;;8.00;7.40;;;20.80;99.90;;;;;;5010854;28;20179;-66
2021/06/04 05:47:07;;;;;;;7.13;6.57;;;21.20;99.90;;;;;;5010995;28;20473;-66
2021/06/04 05:49:33;;;;;;;7.27;6.77;;;21.40;99.90;;;;;;5010226;28;20413;-66
2021/06/04 05:52:00;;;;;;;7.17;6.67;;;21.70;99.90;;;;;;5013069;28;20429;-66
2021/06/04 05:54:27;;;;;;;6.80;6.30;;;22.20;99.90;;;;;;5014684;28;20285;-66
2021/06/04 05:56:53;;;;;;;6.70;6.20;;;22.30;99.90;;;;;;5014853;28;20426;-66
2021/06/04 05:59:19;;;;;;;6.80;6.30;;;22.50;99.90;;;;;;5014094;28;20556;-66
2021/06/04 06:01:48;;;;;;;6.37;5.97;;;22.60;99.90;;;;;;5014676;28;20513;-67
2021/06/04 06:04:16;;;;;;;9.27;5.93;;;22.50;99.90;;;;;;5014533;28;20277;-66
2021/06/04 06:06:42;;;;;;;5.97;5.30;;;22.80;99.90;;;;;;5014643;28;20426;-67
2021/06/04 06:09:07;;;;;;;5.90;5.50;;;23.20;99.90;;;;;;5014156;28;20425;-66
2021/06/04 06:11:34;;;;;;;5.70;5.30;;;23.50;99.90;;;;;;5014612;28;20182;-67
2021/06/04 06:14:00;;;;;;;4.10;3.90;;;23.90;99.90;;;;;;5014319;28;20707;-67
2021/06/04 06:16:28;;;;;;;4.10;3.83;;;24.10;99.90;;;;;;5014570;28;20425;-66
2021/06/04 06:18:54;;;;;;;5.10;4.80;;;24.50;99.90;;;;;;5013787;28;20505;-66
2021/06/04 06:21:21;;;;;;;4.17;3.93;;;24.80;99.90;;;;;;5014601;28;20487;-66
2021/06/04 06:23:46;;;;;;;4.23;3.97;;;25.00;99.90;;;;;;5014309;28;20865;-65
2021/06/04 06:26:17;;;;;;;4.93;4.40;;;24.70;99.90;;;;;;5014170;28;20460;-66
2021/06/04 06:28:43;;;;;;;4.40;4.00;;;24.40;99.90;;;;;;5013509;28;20171;-65
2021/06/04 06:31:14;;;;;;;4.07;3.67;;;24.10;99.90;;;;;;5014231;28;20852;-66
2021/06/04 06:33:40;;;;;;;4.33;3.57;;;24.20;99.90;;;;;;5013935;28;20630;-66
2021/06/04 06:36:10;;;;;;;3.00;2.80;;;24.10;99.90;;;;;;5012563;28;20421;-65
2021/06/04 06:38:36;;;;;;;4.77;3.90;;;23.70;99.90;;;;;;5013561;28;20420;-67
2021/06/04 06:41:06;;;;;;;5.00;4.43;;;23.40;99.90;;;;;;5014029;28;20449;-66
2021/06/04 06:43:33;;;;;;;4.03;3.73;;;23.40;99.90;;;;;;5013857;28;20516;-66
2021/06/04 06:46:00;;;;;;;3.70;3.40;;;23.20;99.90;;;;;;5014539;28;20413;-67
2021/06/04 06:48:26;;;;;;;4.33;3.93;;;23.00;99.90;;;;;;5013226;28;20418;-66
2021/06/04 06:50:53;;;;;;;5.47;3.60;;;23.00;99.90;;;;;;5013867;28;20867;-66
2021/06/04 06:53:22;;;;;;;3.87;3.47;;;22.90;99.90;;;;;;5013691;28;20436;-65
2021/06/04 06:55:48;;;;;;;4.00;3.73;;;23.00;99.90;;;;;;5013607;28;20518;-65
2021/06/04 06:58:14;;;;;;;4.10;3.77;;;23.00;99.90;;;;;;5012818;28;20414;-65
2021/06/04 07:00:50;;;;;;;4.60;4.20;;;22.80;99.90;;;;;;5013654;28;20452;-66
2021/06/04 07:03:23;;;;;;;4.93;4.17;;;22.60;99.90;;;;;;5013219;28;20491;-66
2021/06/04 07:05:48;;;;;;;3.77;3.47;;;22.60;99.90;;;;;;5013468;28;20425;-65
2021/06/04 07:08:14;;;;;;;3.90;3.57;;;22.60;99.90;;;;;;5012688;28;20421;-65
2021/06/04 07:10:40;;;;;;;3.97;3.67;;;22.70;99.90;;;;;;5013421;28;20201;-68
2021/06/04 07:13:09;;;;;;;3.97;3.67;;;22.60;99.90;;;;;;5013327;28;20680;-65
2021/06/04 07:15:36;;;;;;;7.40;4.93;;;22.50;99.90;;;;;;5013493;28;20177;-65
2021/06/04 07:18:02;;;;;;;3.90;3.60;;;22.50;99.90;;;;;;5012609;28;20421;-65
2021/06/04 07:20:30;;;;;;;6.00;3.60;;;22.50;99.90;;;;;;5012841;28;20425;-65
2021/06/04 07:22:57;;;;;;;5.17;4.73;;;22.60;99.90;;;;;;5012992;28;20875;-65
2021/06/04 07:25:26;;;;;;;7.27;4.17;;;22.70;99.90;;;;;;5013159;28;20429;-66
2021/06/04 07:27:51;;;;;;;5.83;3.90;;;23.00;99.90;;;;;;5012660;28;20792;-66
2021/06/04 07:30:23;;;;;;;4.53;4.23;;;23.50;99.90;;;;;;5013149;28;20418;-66
2021/06/04 07:32:50;;;;;;;5.30;4.77;;;23.80;99.90;;;;;;5013119;28;20676;-65
2021/06/04 07:35:18;;;;;;;6.60;3.60;;;24.10;99.90;;;;;;5012767;28;20461;-65
2021/06/04 07:37:44;;;;;;;3.47;3.00;;;24.70;99.90;;;;;;5010724;28;20422;-65
2021/06/04 07:40:13;;;;;;;4.17;3.87;;;25.10;99.90;;;;;;5012831;28;20469;-65
2021/06/04 07:42:39;;;;;;;3.70;3.40;;;25.60;99.90;;;;;;5013014;28;21031;-66
2021/06/04 07:45:06;;;;;;;4.97;3.83;;;25.80;99.90;;;;;;5012757;28;20505;-65
2021/06/04 07:47:32;;;;;;;4.20;3.90;;;25.70;99.90;;;;;;5012072;28;20186;-66
2021/06/04 07:49:58;;;;;;;5.43;3.60;;;25.90;99.90;;;;;;5012518;28;20422;-66
2021/06/04 07:52:24;;;;;;;3.90;3.70;;;26.40;99.90;;;;;;5012617;28;20206;-65
2021/06/04 07:54:50;;;;;;;3.77;3.33;;;26.70;99.90;;;;;;5012738;28;20241;-66
2021/06/04 07:57:15;;;;;;;3.70;3.40;;;27.00;99.90;;;;;;5012024;28;20232;-66
2021/06/04 07:59:41;;;;;;;3.23;3.03;;;27.30;99.90;;;;;;5012421;28;20418;-66
2021/06/04 08:02:07;;;;;;;3.37;3.07;;;27.70;99.90;;;;;;5012375;28;20218;-66
2021/06/04 08:04:33;;;;;;;3.70;3.20;;;27.90;99.90;;;;;;5012255;28;20605;-66
2021/06/04 08:06:58;;;;;;;4.47;3.10;;;28.20;99.30;;;;;;5012408;28;20425;-66
2021/06/04 08:09:24;;;;;;;5.70;3.53;;;28.30;99.00;;;;;;5011802;28;20175;-66
2021/06/04 08:11:58;;;;;;;5.07;4.57;;;28.40;98.40;;;;;;5012494;28;20629;-66
2021/06/04 08:14:26;;;;;;;3.90;3.60;;;28.40;98.00;;;;;;5011379;28;20461;-65
2021/06/04 08:16:54;;;;;;;3.30;3.10;;;28.60;97.40;;;;;;5012212;28;20552;-66
2021/06/04 08:19:21;;;;;;;5.27;3.30;;;28.60;96.80;;;;;;5011236;28;20426;-67
2021/06/04 08:21:50;;;;;;;7.20;3.53;;;28.70;96.90;;;;;;5012284;28;20421;-65
2021/06/04 08:24:19;;;;;;;4.70;3.23;;;28.80;95.80;;;;;;5011953;28;20533;-66
2021/06/04 08:26:46;;;;;;;4.33;3.13;;;28.80;95.50;;;;;;5012181;28;20426;-66
2021/06/04 08:29:12;;;;;;;3.70;3.40;;;28.90;94.80;;;;;;5011373;28;20433;-66
2021/06/04 08:31:38;;;;;;;3.37;3.07;;;28.80;95.20;;;;;;5011863;28;20429;-65
2021/06/04 08:34:05;;;;;;;3.93;3.03;;;28.80;93.50;;;;;;5011561;28;20478;-66
2021/06/04 08:36:34;;;;;;;3.60;3.03;;;28.60;93.70;;;;;;5010268;28;20414;-66
2021/06/04 08:39:06;;;;;;;4.90;4.47;;;28.50;93.40;;;;;;5011258;28;20429;-67
2021/06/04 08:41:43;;;;;;;4.50;3.60;;;28.40;93.40;;;;;;5011819;28;20428;-67
2021/06/04 08:44:26;;;;;;;4.33;3.40;;;28.30;93.10;;;;;;5011531;28;20472;-66
2021/06/04 08:47:03;;;;;;;3.43;2.73;;;28.80;93.10;;;;;;5011689;28;20418;-66
2021/06/04 08:49:48;;;;;;;3.30;3.10;;;28.60;93.60;;;;;;5011075;28;20453;-66
2021/06/04 08:52:13;;;;;;;3.47;3.17;;;28.80;92.90;;;;;;5011529;28;20422;-67
2021/06/04 08:54:47;;;;;;;4.70;4.30;;;29.30;92.50;;;;;;5011867;28;20507;-66
2021/06/04 08:57:27;;;;;;;4.20;3.90;;;29.90;92.10;;;;;;5011642;28;20185;-67
2021/06/04 08:59:55;;;;;;;3.20;2.90;;;30.20;90.90;;;;;;5011645;28;20468;-66
2021/06/04 09:02:38;;;;;;;3.53;3.20;;;30.40;91.20;;;;;;5011340;28;20859;-66
2021/06/04 09:05:10;;;;;;;4.97;3.33;;;31.00;90.10;;;;;;5011323;28;20461;-66
2021/06/04 09:07:41;;;;;;;4.47;3.83;;;31.40;88.10;;;;;;5010810;28;20429;-66
2021/06/04 09:10:48;;;;;;;3.00;2.80;;;31.20;87.30;;;;;;5011219;28;20941;-67
2021/06/04 09:13:17;;;;;;;3.60;3.30;;;30.70;88.30;;;;;;5010887;28;20870;-66
2021/06/04 09:15:45;;;;;;;4.80;3.70;;;30.40;87.80;;;;;;5011416;28;20413;-66
2021/06/04 09:18:18;;;;;;;3.97;3.67;;;30.80;87.70;;;;;;5010615;28;20953;-66
2021/06/04 09:20:53;;;;;;;5.57;3.87;;;31.20;85.50;;;;;;5011366;28;20907;-66
2021/06/04 09:23:24;;;;;;;5.50;3.00;;;30.90;86.00;;;;;;5011139;28;20437;-66
2021/06/04 09:25:50;;;;;;;4.10;3.80;;;31.00;85.20;;;;;;5010906;28;20512;-66
2021/06/04 09:28:24;;;;;;;3.83;3.50;;;31.10;83.50;;;;;;5010593;28;20496;-66
2021/06/04 09:30:57;;;;;;;3.73;3.53;;;30.70;84.40;;;;;;5011063;28;20429;-66
2021/06/04 09:33:31;;;;;;;6.10;4.13;;;30.60;85.20;;;;;;5010783;28;20476;-66
2021/06/04 09:36:17;;;;;;;5.93;3.93;;;30.70;84.90;;;;;;5010902;28;20444;-66
2021/06/04 09:39:00;;;;;;;4.30;3.90;;;30.90;85.90;;;;;;5010260;28;20421;-66
2021/06/04 09:41:25;;;;;;;4.40;4.00;;;30.70;85.90;;;;;;5011027;28;20830;-65
2021/06/04 09:44:19;;;;;;;5.80;3.90;;;31.10;84.10;;;;;;5010826;28;20462;-66
2021/06/04 09:47:11;;;;;;;6.40;4.20;;;30.10;87.00;;;;;;5011047;28;20175;-66
2021/06/04 09:49:36;;;;;;;4.67;4.20;;;30.00;88.20;;;;;;5010673;28;20414;-65
2021/06/04 09:52:22;;;;;;;5.67;4.20;;;30.00;89.60;;;;;;5010816;28;20414;-66
2021/06/04 09:55:03;;;;;;;5.10;4.10;;;29.70;89.80;;;;;;5010708;28;20229;-65
2021/06/04 09:57:28;;;;;;;7.20;3.87;;;29.70;90.30;;;;;;5010088;28;20421;-66
2021/06/04 09:59:54;;;;;;;5.57;4.03;;;29.70;90.70;;;;;;5010862;28;20418;-66
2021/06/04 10:02:30;;;;;;;8.67;4.70;;;29.60;91.10;;;;;;5010589;28;20624;-66
2021/06/04 10:05:26;;;;;;;5.73;5.27;;;29.50;90.60;;;;;;5010692;28;20185;-66
2021/06/04 10:08:22;;;;;;;5.40;4.40;;;29.60;90.80;;;;;;5009929;28;20432;-66
2021/06/04 10:11:17;;;;;;;4.87;4.47;;;29.80;90.90;;;;;;5010777;28;20425;-66
2021/06/04 10:14:08;;;;;;;4.57;3.80;;;30.40;90.70;;;;;;5010461;28;20784;-66
2021/06/04 10:19:32;;;;;;;5.30;4.80;;;30.70;90.40;;;;;;5009986;28;20418;-66
2021/06/04 10:22:31;;;;;;;6.10;5.50;;;30.20;91.20;;;;;;5010531;28;20463;-66
2021/06/04 10:25:00;;;;;;;5.43;4.90;;;29.70;91.70;;;;;;5010617;28;20417;-66
2021/06/04 10:27:25;;;;;;;4.43;4.00;;;29.00;92.40;;;;;;5009884;28;20418;-66
2021/06/04 10:30:23;;;;;;;4.83;4.43;;;28.60;93.50;;;;;;5010424;28;20483;-66
2021/06/04 10:32:53;;;;;;;4.77;4.27;;;28.30;94.00;;;;;;5010708;28;20219;-66
2021/06/04 10:35:35;;;;;;;5.50;5.00;;;28.20;94.40;;;;;;5010330;28;20931;-66
2021/06/04 10:38:22;;;;;;;4.90;4.50;;;28.40;94.00;;;;;;5010405;28;20428;-66
2021/06/04 10:41:19;;;;;;;11.23;5.03;;;28.50;94.20;;;;;;5013979;28;20413;-66
2021/06/04 10:44:16;;;;;;;5.30;4.90;;;28.50;94.50;;;;;;5010785;28;20489;-65
2021/06/04 10:47:00;;;;;;;5.30;4.70;;;28.30;94.80;;;;;;5013869;28;20564;-66
2021/06/04 10:49:52;;;;;;;5.70;5.00;;;27.90;95.50;;;;;;5013133;28;20426;-66
2021/06/04 10:52:46;;;;;;;5.00;4.50;;;27.70;96.30;;;;;;5013683;28;20441;-67
2021/06/04 10:55:20;;;;;;;6.70;5.47;;;27.70;96.80;;;;;;5014045;28;20997;-65
2021/06/04 10:57:51;;;;;;;5.37;4.97;;;27.50;96.70;;;;;;5013136;28;20565;-66
2021/06/04 11:00:26;;;;;;;8.80;4.80;;;27.50;96.90;;;;;;5013567;28;20939;-66
2021/06/04 11:03:12;;;;;;;6.63;5.93;;;27.70;97.20;;;;;;5013830;28;20444;-66
2021/06/04 11:06:19;;;;;;;4.37;4.03;;;28.10;96.70;;;;;;5013513;28;20919;-66
2021/06/04 11:09:06;;;;;;;6.57;4.80;;;28.50;95.20;;;;;;5012836;28;20512;-66
2021/06/04 11:12:01;;;;;;;4.83;4.43;;;29.40;94.50;;;;;;5013494;28;20414;-67
2021/06/04 11:15:04;;;;;;;5.03;4.53;;;30.10;93.10;;;;;;5013640;28;20540;-66
2021/06/04 11:17:59;;;;;;;4.60;4.20;;;30.20;92.90;;;;;;5012776;28;20493;-66
2021/06/04 11:20:36;;;;;;;5.43;4.70;;;30.40;92.40;;;;;;5013082;28;20432;-66
2021/06/04 11:23:18;;;;;;;6.00;5.40;;;30.40;92.30;;;;;;5013317;28;20444;-66
2021/06/04 11:25:54;;;;;;;8.80;5.13;;;30.60;91.90;;;;;;5013159;28;20405;-65
2021/06/04 11:28:49;;;;;;;5.33;4.90;;;30.60;91.60;;;;;;5012360;28;20914;-65
2021/06/04 11:31:32;;;;;;;5.03;4.10;;;30.20;91.80;;;;;;5013150;28;20501;-65
2021/06/04 11:34:03;;;;;;;7.10;6.50;;;29.80;92.70;;;;;;5013455;28;20469;-65
2021/06/04 11:36:30;;;;;;;6.37;5.83;;;29.60;92.60;;;;;;5012985;28;20471;-65
2021/06/04 11:39:05;;;;;;;5.87;4.83;;;29.60;92.90;;;;;;5012247;28;20422;-67
2021/06/04 11:41:37;;;;;;;5.47;4.97;;;29.50;92.80;;;;;;5012847;28;20440;-66
2021/06/04 11:44:21;;;;;;;5.13;4.73;;;29.90;92.40;;;;;;5012650;28;20443;-67
2021/06/04 11:47:06;;;;;;;5.40;4.90;;;30.30;91.70;;;;;;5012879;28;20428;-66
2021/06/04 11:49:54;;;;;;;6.30;5.90;;;30.10;92.30;;;;;;5010880;28;20788;-66
2021/06/04 11:52:32;;;;;;;5.10;4.80;;;29.70;92.30;;;;;;5012572;28;20442;-66
2021/06/04 11:55:22;;;;;;;5.37;4.97;;;29.60;92.90;;;;;;5012586;28;20464;-66
2021/06/04 11:57:52;;;;;;;5.03;4.63;;;28.90;93.70;;;;;;5012211;28;20421;-65
2021/06/04 12:00:30;;;;;;;5.73;5.20;;;28.70;94.50;;;;;;5012587;28;20832;-66
2021/06/04 12:03:04;;;;;;;5.20;4.70;;;28.40;95.10;;;;;;5012541;28;20861;-66
2021/06/04 12:05:32;;;;;;;6.13;5.60;;;27.70;95.80;;;;;;5012647;28;20420;-67
2021/06/04 12:08:16;;;;;;;5.80;5.20;;;27.10;97.20;;;;;;5011575;28;20505;-65
2021/06/04 12:10:53;;;;;;;7.63;6.37;;;26.90;98.30;;;;;;5012414;28;20417;-66
2021/06/04 12:13:34;;;;;;;6.50;5.97;;;26.60;99.70;;;;;;5012016;28;20429;-65
2021/06/04 12:16:21;;;;;;;5.37;5.03;;;26.30;99.90;;;;;;5012341;28;20413;-66
2021/06/04 12:18:59;;;;;;;5.70;5.20;;;26.30;99.90;;;;;;5011259;28;20501;-66
2021/06/04 12:21:40;;;;;;;8.47;5.20;;;26.40;99.90;;;;;;5011995;28;20502;-65
2021/06/04 12:24:21;;;;;;;5.70;5.17;;;26.40;99.90;;;;;;5012050;28;20438;-65
2021/06/04 12:26:53;;;;;;;6.80;5.30;;;26.30;99.90;;;;;;5011938;28;20417;-66
2021/06/04 12:29:22;;;;;;;4.80;4.27;;;26.60;99.90;;;;;;5011187;28;20410;-67
2021/06/04 12:31:52;;;;;;;4.20;3.80;;;27.60;99.90;;;;;;5012061;28;20425;-66
2021/06/04 12:34:39;;;;;;;6.97;4.60;;;28.80;98.10;;;;;;5011566;28;20919;-66
2021/06/04 12:37:05;;;;;;;7.10;3.80;;;28.70;97.70;;;;;;5011867;28;20418;-66
2021/06/04 12:40:21;;;;;;;4.80;3.40;;;28.50;96.30;;;;;;5011020;28;20422;-66
2021/06/04 12:43:11;;;;;;;4.80;3.63;;;28.80;95.40;;;;;;5002328;28;20210;-65
2021/06/04 12:46:06;;;;;;;3.67;3.10;;;29.60;95.20;;;;;;5011770;28;20441;-66
2021/06/04 12:48:37;;;;;;;5.33;2.87;;;29.50;93.10;;;;;;5002912;28;20838;-66
2021/06/04 12:51:23;;;;;;;3.20;2.77;;;29.70;93.20;;;;;;5011646;28;20927;-66
2021/06/04 12:53:50;;;;;;;2.60;2.40;;;30.70;89.50;;;;;;5011213;28;20815;-66
2021/06/04 12:56:26;;;;;;;3.73;3.23;;;30.20;88.70;;;;;;5011440;28;20428;-65
2021/06/04 12:59:00;;;;;;;3.60;3.13;;;31.10;87.40;;;;;;5010809;28;20417;-66
2021/06/04 13:01:27;;;;;;;3.17;2.90;;;31.80;85.10;;;;;;5011519;28;20409;-65
2021/06/04 13:04:00;;;;;;;11.13;2.77;;;31.40;84.20;;;;;;5011292;28;20473;-66
2021/06/04 13:06:41;;;;;;;2.73;2.53;;;31.50;84.90;;;;;;5011332;28;20418;-66
2021/06/04 13:09:26;;;;;;;3.77;2.77;;;31.80;84.40;;;;;;5010582;28;20828;-66
2021/06/04 13:11:52;;;;;;;2.97;2.77;;;32.20;83.30;;;;;;5011233;28;20410;-66
2021/06/04 13:14:21;;;;;;;3.63;3.43;;;33.60;81.20;;;;;;5010924;28;20458;-67
2021/06/04 13:16:48;;;;;;;3.73;2.90;;;34.30;78.90;;;;;;5011166;28;20246;-66